createdAt,value
2018-12-22T00:03:18.408Z,12.70
2018-12-22T00:07:20.758Z,11.90
2018-12-22T00:11:23.083Z,11.80
2018-12-22T00:15:25.459Z,12.30
2018-12-22T00:19:28.711Z,11.70
2018-12-22T00:23:31.029Z,11.90
2018-12-22T00:27:33.384Z,12.10
2018-12-22T00:31:35.768Z,12.00
2018-12-22T00:35:38.095Z,12.20
2018-12-22T00:39:40.460Z,12.30
2018-12-22T00:43:42.756Z,12.40
2018-12-22T00:47:45.066Z,12.40
2018-12-22T00:51:47.468Z,13.20
2018-12-22T00:55:49.750Z,13.70
2018-12-22T00:59:52.102Z,13.20
2018-12-22T01:03:54.436Z,12.40
2018-12-22T01:07:56.771Z,12.40
2018-12-22T01:11:59.136Z,12.80
2018-12-22T01:16:01.484Z,12.90
2018-12-22T01:20:05.171Z,12.40
2018-12-22T01:24:07.498Z,12.20
2018-12-22T01:28:09.817Z,11.60
2018-12-22T01:32:12.133Z,11.90
2018-12-22T01:36:14.449Z,11.80
2018-12-22T01:40:16.808Z,11.40
2018-12-22T01:44:19.118Z,11.50
2018-12-22T01:48:21.498Z,12.00
2018-12-22T01:52:23.888Z,11.50
2018-12-22T01:56:26.199Z,11.80
2018-12-22T02:00:28.498Z,11.70
2018-12-22T02:04:30.759Z,11.30
2018-12-22T02:08:33.093Z,11.60
2018-12-22T02:12:35.439Z,11.10
2018-12-22T02:16:37.888Z,11.10
2018-12-22T02:20:40.253Z,11.40
2018-12-22T02:24:42.652Z,11.90
2018-12-22T02:28:44.991Z,11.50
2018-12-22T02:32:47.343Z,11.60
2018-12-22T02:36:49.658Z,11.70
2018-12-22T02:40:52.013Z,11.00
2018-12-22T02:44:54.294Z,11.70
2018-12-22T02:48:56.633Z,11.80
2018-12-22T02:52:59.012Z,11.80
2018-12-22T02:57:01.489Z,11.80
2018-12-22T03:01:03.728Z,11.30
2018-12-22T03:05:06.085Z,11.30
2018-12-22T03:09:08.450Z,11.30
2018-12-22T03:13:10.838Z,11.50
2018-12-22T03:17:13.758Z,11.10
2018-12-22T03:21:16.139Z,11.50
2018-12-22T03:25:18.525Z,10.80
2018-12-22T03:29:20.909Z,10.90
2018-12-22T03:33:23.224Z,10.80
2018-12-22T03:37:25.535Z,10.80
2018-12-22T03:41:27.947Z,11.20
2018-12-22T03:45:30.314Z,11.40
2018-12-22T03:49:32.668Z,11.70
2018-12-22T03:53:35.061Z,11.40
2018-12-22T03:57:37.397Z,11.10
2018-12-22T04:01:39.733Z,11.20
2018-12-22T04:05:42.166Z,11.00
2018-12-22T04:09:44.523Z,10.90
2018-12-22T04:13:46.827Z,10.70
2018-12-22T04:17:49.181Z,11.20
2018-12-22T04:21:51.572Z,11.50
2018-12-22T04:25:53.969Z,11.60
2018-12-22T04:29:56.321Z,11.40
2018-12-22T04:33:58.700Z,11.10
2018-12-22T04:38:01.026Z,10.90
2018-12-22T04:42:03.390Z,11.50
2018-12-22T04:46:05.711Z,11.10
2018-12-22T04:50:08.059Z,10.60
2018-12-22T04:54:10.410Z,10.70
2018-12-22T04:58:12.753Z,10.90
2018-12-22T05:02:15.106Z,11.30
2018-12-22T05:06:17.487Z,11.30
2018-12-22T05:10:19.891Z,11.90
2018-12-22T05:14:22.300Z,11.20
2018-12-22T05:18:24.687Z,11.00
2018-12-22T05:22:27.088Z,11.40
2018-12-22T05:26:29.475Z,11.50
2018-12-22T05:30:31.823Z,11.50
2018-12-22T05:34:34.140Z,11.00
2018-12-22T05:38:36.506Z,10.70
2018-12-22T05:42:38.923Z,10.90
2018-12-22T05:46:41.278Z,10.70
2018-12-22T05:50:43.613Z,11.00
2018-12-22T05:54:45.984Z,10.40
2018-12-22T05:58:48.390Z,10.60
2018-12-22T06:02:50.729Z,10.70
2018-12-22T06:06:53.061Z,10.50
2018-12-22T06:10:55.402Z,10.90
2018-12-22T06:14:57.730Z,10.50
2018-12-22T06:19:00.100Z,10.00
2018-12-22T06:23:02.457Z,10.00
2018-12-22T06:27:04.823Z,10.30
2018-12-22T06:31:07.164Z,10.70
2018-12-22T06:35:09.519Z,10.10
2018-12-22T06:39:11.859Z,10.50
2018-12-22T06:43:14.202Z,10.40
2018-12-22T06:47:16.560Z,10.50
2018-12-22T06:51:18.984Z,10.80
2018-12-22T06:55:21.314Z,11.10
2018-12-22T06:59:23.735Z,10.40
2018-12-22T07:03:26.193Z,10.40
2018-12-22T07:07:29.495Z,10.30
2018-12-22T07:11:31.929Z,10.50
2018-12-22T07:15:34.402Z,10.50
2018-12-22T07:19:43.625Z,11.10
2018-12-22T07:23:46.078Z,10.30
2018-12-22T07:27:48.482Z,10.10
2018-12-22T07:31:50.915Z,10.40
2018-12-22T07:35:53.419Z,10.10
2018-12-22T07:39:55.778Z,10.10
2018-12-22T07:43:58.164Z,10.50
2018-12-22T07:48:00.553Z,10.10
2018-12-22T07:52:03.013Z,10.40
2018-12-22T07:56:05.439Z,9.70
2018-12-22T08:00:08.010Z,9.90
2018-12-22T08:04:10.417Z,10.40
2018-12-22T08:08:12.776Z,10.20
2018-12-22T08:12:15.178Z,10.80
2018-12-22T08:16:17.727Z,10.30
2018-12-22T08:20:20.123Z,10.60
2018-12-22T08:24:22.504Z,11.00
2018-12-22T08:28:24.953Z,11.00
2018-12-22T08:32:27.428Z,11.70
2018-12-22T08:36:29.869Z,11.90
2018-12-22T08:40:32.173Z,11.60
2018-12-22T08:44:34.587Z,10.60
2018-12-22T08:48:37.049Z,10.50
2018-12-22T08:52:40.707Z,11.40
2018-12-22T08:56:43.183Z,10.80
2018-12-22T09:00:52.148Z,10.90
2018-12-22T09:04:48.032Z,10.90
2018-12-22T09:08:50.475Z,10.50
2018-12-22T09:12:53.059Z,11.00
2018-12-22T09:16:55.502Z,9.70
2018-12-22T09:20:57.816Z,9.30
2018-12-22T09:25:00.233Z,9.10
2018-12-22T09:29:02.613Z,9.00
2018-12-22T09:33:05.041Z,9.00
2018-12-22T09:37:07.466Z,8.60
2018-12-22T09:41:09.868Z,8.90
2018-12-22T09:45:12.332Z,9.50
2018-12-22T09:49:14.669Z,9.40
2018-12-22T09:53:17.086Z,8.90
2018-12-22T09:57:19.649Z,9.30
2018-12-22T10:01:22.134Z,9.60
2018-12-22T10:05:24.657Z,9.50
2018-12-22T10:09:27.214Z,9.70
2018-12-22T10:13:29.765Z,10.20
2018-12-22T10:17:32.096Z,10.00
2018-12-22T10:21:34.450Z,10.10
2018-12-22T10:25:36.824Z,9.90
2018-12-22T10:29:39.206Z,9.90
2018-12-22T10:33:41.599Z,10.40
2018-12-22T10:37:44.011Z,10.70
2018-12-22T10:41:46.569Z,10.90
2018-12-22T10:45:48.981Z,10.50
2018-12-22T10:49:51.356Z,10.50
2018-12-22T10:53:53.716Z,10.70
2018-12-22T10:57:56.170Z,10.90
2018-12-22T11:01:58.554Z,11.10
2018-12-22T11:06:03.932Z,11.50
2018-12-22T11:10:09.620Z,11.60
2018-12-22T11:14:12.105Z,10.70
2018-12-22T11:18:15.361Z,11.20
2018-12-22T11:22:18.084Z,11.10
2018-12-22T11:26:20.503Z,11.90
2018-12-22T11:30:27.206Z,9.70
2018-12-22T11:34:29.575Z,9.50
2018-12-22T11:38:31.966Z,9.70
2018-12-22T11:42:34.369Z,10.30
2018-12-22T11:46:38.403Z,10.10
2018-12-22T11:50:40.759Z,9.40
2018-12-22T11:54:43.709Z,10.00
2018-12-22T11:58:46.039Z,10.40
2018-12-22T12:02:48.486Z,11.30
2018-12-22T12:06:51.092Z,11.40
2018-12-22T12:10:53.539Z,11.90
2018-12-22T12:14:56.010Z,12.00
2018-12-22T12:19:08.808Z,11.80
2018-12-22T12:23:11.640Z,11.80
2018-12-22T12:27:14.032Z,11.90
2018-12-22T12:31:16.420Z,11.60
2018-12-22T12:35:18.853Z,12.30
2018-12-22T12:39:21.280Z,11.70
2018-12-22T12:43:24.241Z,12.20
2018-12-22T12:47:26.826Z,11.70
2018-12-22T12:51:29.399Z,12.20
2018-12-22T12:55:31.949Z,12.20
2018-12-22T12:59:34.491Z,12.70
2018-12-22T13:03:36.905Z,12.20
2018-12-22T13:07:39.421Z,11.90
2018-12-22T13:11:42.206Z,13.30
2018-12-22T13:15:44.680Z,12.50
2018-12-22T13:19:47.263Z,12.60
2018-12-22T13:23:51.679Z,13.70
2018-12-22T13:27:55.058Z,12.40
2018-12-22T13:31:58.329Z,12.00
2018-12-22T13:36:00.828Z,12.30
2018-12-22T13:40:04.006Z,11.90
2018-12-22T13:44:06.602Z,12.10
2018-12-22T13:48:09.600Z,11.90
2018-12-22T13:52:11.931Z,11.60
2018-12-22T13:56:14.323Z,11.80
2018-12-22T14:00:17.325Z,12.10
2018-12-22T14:04:22.200Z,11.30
2018-12-22T14:08:26.072Z,11.40
2018-12-22T14:12:28.537Z,11.10
2018-12-22T14:17:14.279Z,11.30
2018-12-22T14:21:16.725Z,11.40
2018-12-22T14:25:24.478Z,12.10
2018-12-22T14:29:26.972Z,11.90
2018-12-22T14:33:29.444Z,12.00
2018-12-22T14:37:31.782Z,11.80
2018-12-22T14:41:34.194Z,12.10
2018-12-22T14:45:36.586Z,11.90
2018-12-22T14:49:38.975Z,11.40
2018-12-22T14:53:41.368Z,11.30
2018-12-22T14:57:54.631Z,11.60
2018-12-22T15:01:59.162Z,11.90
2018-12-22T15:06:01.573Z,11.10
2018-12-22T15:10:04.162Z,10.90
2018-12-22T15:14:06.713Z,11.40
2018-12-22T15:18:09.088Z,11.20
2018-12-22T15:22:11.508Z,10.80
2018-12-22T15:26:14.107Z,11.50
2018-12-22T15:30:16.559Z,11.40
2018-12-22T15:34:18.900Z,11.10
2018-12-22T15:38:21.322Z,11.70
2018-12-22T15:42:23.699Z,11.00
2018-12-22T15:46:26.064Z,11.40
2018-12-22T15:50:30.694Z,11.10
2018-12-22T15:54:33.194Z,10.90
2018-12-22T15:58:35.644Z,10.40
2018-12-22T16:02:38.016Z,10.70
2018-12-22T16:06:40.384Z,11.20
2018-12-22T16:10:42.837Z,10.80
2018-12-22T16:14:45.194Z,10.80
2018-12-22T16:18:47.562Z,11.70
2018-12-22T16:22:55.103Z,10.80
2018-12-22T16:26:57.624Z,10.50
2018-12-22T16:31:00.098Z,11.10
2018-12-22T16:35:02.522Z,10.40
2018-12-22T16:39:06.941Z,10.90
2018-12-22T16:43:12.024Z,10.60
2018-12-22T16:47:14.452Z,10.60
2018-12-22T16:51:16.856Z,10.60
2018-12-22T16:55:19.277Z,10.40
2018-12-22T16:59:21.787Z,10.10
2018-12-22T17:03:24.197Z,10.30
2018-12-22T17:07:26.629Z,10.10
2018-12-22T17:11:29.062Z,10.00
2018-12-22T17:15:31.586Z,10.20
2018-12-22T17:19:34.023Z,10.30
2018-12-22T17:23:57.561Z,10.10
2018-12-22T17:27:59.942Z,10.30
2018-12-22T17:32:02.301Z,10.20
2018-12-22T17:36:05.264Z,11.10
2018-12-22T17:40:09.514Z,10.60
2018-12-22T17:44:10.098Z,10.70
2018-12-22T17:48:12.559Z,10.40
2018-12-22T17:52:15.854Z,10.70
2018-12-22T17:56:18.253Z,10.60
2018-12-22T18:00:20.610Z,10.30
2018-12-22T18:04:23.104Z,11.00
2018-12-22T18:08:25.569Z,11.20
2018-12-22T18:12:27.907Z,10.50
2018-12-22T18:16:30.333Z,10.40
2018-12-22T18:20:32.810Z,10.30
2018-12-22T18:24:35.221Z,10.50
2018-12-22T18:28:38.220Z,10.30
2018-12-22T18:32:40.878Z,10.50
2018-12-22T18:36:43.404Z,10.20
2018-12-22T18:40:45.814Z,10.20
2018-12-22T18:44:48.276Z,10.40
2018-12-22T18:48:50.668Z,10.60
2018-12-22T18:52:53.217Z,10.40
2018-12-22T18:56:55.647Z,10.10
2018-12-22T19:00:58.019Z,10.80
2018-12-22T19:05:00.382Z,10.50
2018-12-22T19:09:04.838Z,11.50
2018-12-22T19:13:07.239Z,10.80
2018-12-22T19:17:09.643Z,10.60
2018-12-22T19:21:12.028Z,10.70
2018-12-22T19:25:14.453Z,10.10
2018-12-22T19:29:16.838Z,10.10
2018-12-22T19:33:19.236Z,10.80
2018-12-22T19:37:21.684Z,10.80
2018-12-22T19:41:24.120Z,11.40
2018-12-22T19:45:26.518Z,10.80
2018-12-22T19:49:28.876Z,11.30
2018-12-22T19:53:31.213Z,10.70
2018-12-22T19:57:33.678Z,11.50
2018-12-22T20:01:36.085Z,10.40
2018-12-22T20:05:38.771Z,10.70
2018-12-22T20:09:41.186Z,10.90
2018-12-22T20:13:43.551Z,11.10
2018-12-22T20:17:45.967Z,11.00
2018-12-22T20:21:48.857Z,10.90
2018-12-22T20:25:51.212Z,10.80
2018-12-22T20:29:53.570Z,10.50
2018-12-22T20:33:56.011Z,10.50
2018-12-22T20:37:58.375Z,11.30
2018-12-22T20:42:00.900Z,10.60
2018-12-22T20:46:03.632Z,10.50
2018-12-22T20:50:06.207Z,11.00
2018-12-22T20:54:08.957Z,11.60
2018-12-22T20:58:11.642Z,11.00
2018-12-22T21:02:14.215Z,10.40
2018-12-22T21:06:19.162Z,10.30
2018-12-22T21:10:21.831Z,10.30
2018-12-22T21:14:25.947Z,10.80
2018-12-22T21:18:28.626Z,11.00
2018-12-22T21:22:31.103Z,10.30
2018-12-22T21:26:33.591Z,10.40
2018-12-22T21:30:36.454Z,10.50
2018-12-22T21:34:38.856Z,10.80
2018-12-22T21:38:41.363Z,11.00
2018-12-22T21:42:44.390Z,10.30
2018-12-22T21:46:46.978Z,10.60
2018-12-22T21:50:49.495Z,10.70
2018-12-22T21:54:51.987Z,11.20
2018-12-22T21:58:54.430Z,10.80
2018-12-22T22:02:56.982Z,10.80
2018-12-22T22:06:59.341Z,12.40
2018-12-22T22:11:03.402Z,11.40
2018-12-22T22:15:05.883Z,11.10
2018-12-22T22:19:08.192Z,11.10
2018-12-22T22:23:18.626Z,11.50
2018-12-22T22:27:12.962Z,11.40
2018-12-22T22:31:15.427Z,11.50
2018-12-22T22:35:17.818Z,11.30
2018-12-22T22:39:20.264Z,11.30
2018-12-22T22:43:22.590Z,11.50
2018-12-22T22:47:25.101Z,10.40
2018-12-22T22:51:27.582Z,11.30
2018-12-22T22:55:29.961Z,11.20
2018-12-22T22:59:32.371Z,11.50
2018-12-22T23:03:34.689Z,11.60
2018-12-22T23:07:37.076Z,11.90
2018-12-22T23:11:39.417Z,11.00
2018-12-22T23:15:41.785Z,11.90
2018-12-22T23:19:44.139Z,11.80
2018-12-22T23:23:46.507Z,11.30
2018-12-22T23:27:48.825Z,11.60
2018-12-22T23:31:51.367Z,11.90
2018-12-22T23:35:53.719Z,11.00
2018-12-22T23:39:56.076Z,11.30
2018-12-22T23:43:58.470Z,10.80
2018-12-22T23:48:00.830Z,11.90
2018-12-22T23:52:07.272Z,11.20
2018-12-22T23:56:09.621Z,11.40
